Time;durP1;ratioP1;P1;durP2;ratioP2;P2;SDS_P1;SDS_P2;PMS_P1;PMS_P2;Temp;Humidity;BMP_temperature;BMP_pressure;BME280_temperature;BME280_humidity;BME280_pressure;Samples;Min_cycle;Max_cycle;Signal;HPM_P1;HPM_P2
2023/10/20 00:00:16;;;;;;;0.10;0.10;;;20.90;49.50;;;;;;5083988;28;20298;-50
2023/10/20 00:02:47;;;;;;;0.10;0.10;;;20.90;49.50;;;;;;5073730;28;20285;-53
2023/10/20 00:05:21;;;;;;;0.10;0.10;;;21.00;49.50;;;;;;5078050;28;20542;-55
2023/10/20 00:07:53;;;;;;;0.10;0.10;;;21.00;49.50;;;;;;5073601;28;20224;-50
2023/10/20 00:10:25;;;;;;;0.10;0.10;;;21.10;49.50;;;;;;5081806;28;20289;-53
2023/10/20 00:12:56;;;;;;;0.10;0.10;;;21.00;49.50;;;;;;5082131;28;20564;-52
2023/10/20 00:15:28;;;;;;;0.10;0.10;;;21.10;49.50;;;;;;5073433;28;20528;-48
2023/10/20 00:17:59;;;;;;;0.10;0.10;;;21.10;49.60;;;;;;5094069;28;20567;-49
2023/10/20 00:20:32;;;;;;;0.03;0.03;;;21.10;49.50;;;;;;5081019;28;20277;-47
2023/10/20 00:23:03;;;;;;;0.10;0.10;;;21.20;49.60;;;;;;5088923;28;20189;-51
2023/10/20 00:25:35;;;;;;;0.10;0.10;;;21.20;49.50;;;;;;5088402;28;20605;-48
2023/10/20 00:28:06;;;;;;;0.10;0.10;;;21.20;49.50;;;;;;5082836;28;20240;-50
2023/10/20 00:30:38;;;;;;;0.10;0.10;;;21.30;49.50;;;;;;5078655;28;20594;-54
2023/10/20 00:33:10;;;;;;;0.10;0.10;;;21.30;49.40;;;;;;5085020;28;20194;-50
2023/10/20 00:35:43;;;;;;;0.10;0.10;;;21.30;49.40;;;;;;5085520;28;20365;-47
2023/10/20 00:38:15;;;;;;;0.10;0.10;;;21.40;49.50;;;;;;5078352;28;20227;-50
2023/10/20 00:40:52;;;;;;;0.10;0.10;;;21.40;49.50;;;;;;5075332;28;20199;-54
2023/10/20 00:43:24;;;;;;;0.10;0.10;;;21.50;49.50;;;;;;5081363;28;20524;-47
2023/10/20 00:45:55;;;;;;;0.10;0.10;;;21.50;49.50;;;;;;5090830;28;20260;-47
2023/10/20 00:48:27;;;;;;;0.10;0.10;;;21.50;49.50;;;;;;5091891;28;20595;-44
2023/10/20 00:51:00;;;;;;;0.10;0.10;;;21.50;49.40;;;;;;5092550;28;20190;-42
2023/10/20 00:53:32;;;;;;;0.10;0.10;;;21.50;49.50;;;;;;5101170;28;20245;-45
2023/10/20 00:56:06;;;;;;;0.10;0.10;;;21.60;49.50;;;;;;5083178;28;20531;-49
2023/10/20 00:58:37;;;;;;;0.10;0.10;;;21.60;49.50;;;;;;5077920;28;20250;-47
2023/10/20 01:01:09;;;;;;;0.10;0.10;;;21.60;49.50;;;;;;5080035;28;20559;-54
2023/10/20 01:03:40;;;;;;;0.10;0.10;;;21.60;49.40;;;;;;5078703;28;20203;-48
2023/10/20 01:06:13;;;;;;;0.10;0.10;;;21.70;49.50;;;;;;5087051;28;20285;-45
2023/10/20 01:08:45;;;;;;;0.10;0.10;;;21.70;49.50;;;;;;5081825;28;20236;-46
2023/10/20 01:11:16;;;;;;;0.10;0.10;;;21.70;49.50;;;;;;5092347;28;20235;-50
2023/10/20 01:13:47;;;;;;;0.10;0.10;;;21.80;49.60;;;;;;5075058;28;20202;-50
2023/10/20 01:16:18;;;;;;;0.00;0.00;;;21.80;49.60;;;;;;5079729;28;20550;-49
2023/10/20 01:18:50;;;;;;;0.00;0.00;;;21.80;49.50;;;;;;5087534;28;20603;-53
2023/10/20 01:21:23;;;;;;;0.10;0.10;;;21.90;49.50;;;;;;5081886;28;20520;-47
2023/10/20 01:24:01;;;;;;;0.10;0.10;;;21.90;49.40;;;;;;5075874;28;20495;-48
2023/10/20 01:26:32;;;;;;;0.10;0.10;;;21.90;49.30;;;;;;5091635;28;20564;-43
2023/10/20 01:29:05;;;;;;;0.00;0.00;;;21.90;49.30;;;;;;5084655;28;20600;-49
2023/10/20 01:31:36;;;;;;;0.00;0.00;;;22.00;49.30;;;;;;5087277;28;20222;-48
2023/10/20 01:34:08;;;;;;;0.10;0.10;;;22.00;49.30;;;;;;5081457;28;20579;-47
2023/10/20 01:36:40;;;;;;;0.00;0.00;;;22.00;49.30;;;;;;5084319;28;20259;-45
2023/10/20 01:39:15;;;;;;;0.10;0.10;;;22.00;49.20;;;;;;5083236;28;20285;-44
2023/10/20 01:41:46;;;;;;;0.00;0.00;;;22.00;49.20;;;;;;5085595;28;20500;-48
2023/10/20 01:44:18;;;;;;;0.00;0.00;;;22.10;49.20;;;;;;5086308;28;20211;-48
2023/10/20 01:46:50;;;;;;;0.00;0.00;;;22.10;49.20;;;;;;5081963;28;20190;-47
2023/10/20 01:49:22;;;;;;;0.05;0.05;;;22.10;49.20;;;;;;5086225;28;20214;-43
2023/10/20 01:51:53;;;;;;;0.10;0.10;;;22.10;49.20;;;;;;5081779;28;20190;-43
2023/10/20 01:54:27;;;;;;;0.00;0.00;;;22.10;49.20;;;;;;5076315;28;20194;-46
2023/10/20 01:56:59;;;;;;;0.00;0.00;;;22.10;49.10;;;;;;5089854;28;20186;-44
2023/10/20 01:59:30;;;;;;;0.05;0.05;;;22.10;49.10;;;;;;5087321;28;20206;-51
2023/10/20 02:02:02;;;;;;;0.03;0.03;;;22.10;49.10;;;;;;5085717;28;20307;-46
2023/10/20 02:04:35;;;;;;;0.10;0.10;;;22.10;49.00;;;;;;5076768;28;20207;-48
2023/10/20 02:07:06;;;;;;;0.10;0.10;;;22.20;48.90;;;;;;5073598;28;20583;-48
2023/10/20 02:09:40;;;;;;;0.10;0.10;;;22.20;48.90;;;;;;5086459;28;20583;-50
2023/10/20 02:12:13;;;;;;;0.00;0.00;;;22.20;48.80;;;;;;5086404;28;21217;-46
2023/10/20 02:14:44;;;;;;;0.10;0.10;;;22.20;48.80;;;;;;5079626;28;20327;-45
2023/10/20 02:17:16;;;;;;;0.10;0.10;;;22.20;48.70;;;;;;5076175;28;20225;-46
2023/10/20 02:19:47;;;;;;;0.10;0.10;;;22.20;48.80;;;;;;5075969;28;20569;-48
2023/10/20 02:22:18;;;;;;;0.10;0.10;;;22.20;48.70;;;;;;5082562;28;20578;-55
2023/10/20 02:24:52;;;;;;;0.10;0.10;;;22.30;48.80;;;;;;5082480;28;20218;-48
2023/10/20 02:27:24;;;;;;;0.10;0.10;;;22.30;48.70;;;;;;5088291;28;20842;-49
2023/10/20 02:29:58;;;;;;;0.00;0.00;;;22.30;48.60;;;;;;5081547;28;20232;-53
2023/10/20 02:32:29;;;;;;;0.00;0.00;;;22.30;48.60;;;;;;5085042;28;20656;-49
2023/10/20 02:35:00;;;;;;;0.10;0.10;;;22.30;48.60;;;;;;5080436;28;20549;-44
2023/10/20 02:37:31;;;;;;;0.03;0.03;;;22.30;48.70;;;;;;5088885;28;20245;-45
2023/10/20 02:40:05;;;;;;;0.10;0.10;;;22.30;48.60;;;;;;5087441;28;20553;-50
2023/10/20 02:42:37;;;;;;;0.03;0.03;;;22.30;48.60;;;;;;5087132;28;20215;-49
2023/10/20 02:45:12;;;;;;;0.10;0.10;;;22.30;48.60;;;;;;5081998;28;20571;-47
2023/10/20 02:47:44;;;;;;;0.00;0.00;;;22.30;48.60;;;;;;5085509;28;20198;-54
2023/10/20 02:50:17;;;;;;;0.00;0.00;;;22.30;49.20;;;;;;5078758;28;20556;-53
2023/10/20 02:52:49;;;;;;;0.00;0.00;;;22.40;48.60;;;;;;5078355;28;20266;-45
2023/10/20 02:55:23;;;;;;;0.10;0.10;;;22.30;48.50;;;;;;5079423;28;20757;-53
2023/10/20 02:57:54;;;;;;;0.00;0.00;;;22.40;48.50;;;;;;5071196;28;20229;-49
2023/10/20 03:00:26;;;;;;;0.10;0.10;;;22.40;48.60;;;;;;5082497;28;20261;-50
2023/10/20 03:02:58;;;;;;;0.00;0.00;;;22.40;48.60;;;;;;5083431;28;20531;-53
2023/10/20 03:05:32;;;;;;;0.10;0.10;;;22.40;48.50;;;;;;5072715;28;20321;-54
2023/10/20 03:08:04;;;;;;;0.10;0.10;;;22.50;48.50;;;;;;5072809;28;20534;-55
2023/10/20 03:10:37;;;;;;;0.10;0.10;;;22.50;48.40;;;;;;5085140;28;20549;-50
2023/10/20 03:13:10;;;;;;;0.10;0.10;;;22.50;48.50;;;;;;5074770;28;20190;-46
2023/10/20 03:15:41;;;;;;;0.10;0.10;;;22.50;48.50;;;;;;5084381;28;20617;-55
2023/10/20 03:18:14;;;;;;;0.00;0.00;;;22.50;48.50;;;;;;5082804;28;20575;-53
2023/10/20 03:20:46;;;;;;;0.00;0.00;;;22.50;48.50;;;;;;5088092;28;20615;-50
2023/10/20 03:23:18;;;;;;;0.10;0.10;;;22.50;48.50;;;;;;5078674;28;20556;-49
2023/10/20 03:25:51;;;;;;;0.10;0.10;;;22.50;48.50;;;;;;5074660;28;20245;-44
2023/10/20 03:28:22;;;;;;;0.10;0.10;;;22.50;48.50;;;;;;5088954;28;20213;-55
2023/10/20 03:30:54;;;;;;;0.10;0.10;;;22.50;48.50;;;;;;5086489;28;20241;-50
2023/10/20 03:33:25;;;;;;;0.10;0.10;;;22.60;48.50;;;;;;5087076;28;20206;-48
2023/10/20 03:36:03;;;;;;;0.00;0.00;;;22.60;48.50;;;;;;5079315;28;20232;-51
2023/10/20 03:38:35;;;;;;;0.00;0.00;;;22.60;48.50;;;;;;5079871;28;20555;-50
2023/10/20 03:41:14;;;;;;;0.03;0.03;;;22.60;48.50;;;;;;5075336;28;20539;-53
2023/10/20 03:43:45;;;;;;;0.10;0.10;;;22.60;48.40;;;;;;5073336;28;20538;-48
2023/10/20 03:46:18;;;;;;;0.10;0.10;;;22.60;48.40;;;;;;5080167;28;20236;-49
2023/10/20 03:48:49;;;;;;;0.10;0.10;;;22.60;48.30;;;;;;5076622;28;20838;-52
2023/10/20 03:51:21;;;;;;;0.00;0.00;;;22.60;48.30;;;;;;5085547;28;20678;-46
2023/10/20 03:53:54;;;;;;;0.00;0.00;;;22.60;48.20;;;;;;5078433;28;20246;-48
2023/10/20 03:56:27;;;;;;;0.00;0.00;;;22.60;48.20;;;;;;5086264;28;20310;-47
2023/10/20 03:58:59;;;;;;;0.10;0.10;;;22.50;48.20;;;;;;5084372;28;20253;-48
2023/10/20 04:01:30;;;;;;;0.05;0.05;;;22.50;48.20;;;;;;5083982;28;20546;-45
2023/10/20 04:04:02;;;;;;;0.00;0.00;;;22.50;48.20;;;;;;5087580;28;20567;-46
2023/10/20 04:06:35;;;;;;;0.00;0.00;;;22.50;48.20;;;;;;5080662;28;20592;-49
2023/10/20 04:09:08;;;;;;;0.10;0.10;;;22.50;48.20;;;;;;5075274;28;20244;-47
2023/10/20 04:11:44;;;;;;;0.05;0.05;;;22.50;48.20;;;;;;5086541;28;20576;-47
2023/10/20 04:14:15;;;;;;;0.00;0.00;;;22.50;48.20;;;;;;5086890;28;20525;-46
2023/10/20 04:16:47;;;;;;;0.10;0.10;;;22.50;48.20;;;;;;5076110;28;20610;-47
2023/10/20 04:19:21;;;;;;;0.10;0.10;;;22.50;48.20;;;;;;5071934;28;20557;-48
2023/10/20 04:21:54;;;;;;;0.00;0.00;;;22.50;48.20;;;;;;5065166;28;20822;-43
2023/10/20 04:24:25;;;;;;;0.10;0.10;;;22.50;48.20;;;;;;5075624;28;20280;-48
2023/10/20 04:26:58;;;;;;;0.10;0.10;;;22.50;48.20;;;;;;5090657;28;20559;-48
2023/10/20 04:29:36;;;;;;;0.10;0.10;;;22.50;48.20;;;;;;5090533;28;20285;-47
2023/10/20 04:43:41;;;;;;;0.10;0.10;;;22.40;48.10;;;;;;5090149;28;20189;-46
2023/10/20 04:49:27;;;;;;;0.10;0.10;;;22.40;48.10;;;;;;5110736;28;20286;-46
2023/10/20 04:52:07;;;;;;;0.03;0.03;;;22.40;48.20;;;;;;5090066;28;20190;-46
2023/10/20 04:54:50;;;;;;;0.00;0.00;;;22.40;48.10;;;;;;5090387;28;20198;-49
2023/10/20 04:57:50;;;;;;;0.03;0.03;;;22.40;48.20;;;;;;5089766;28;20542;-46
2023/10/20 05:00:35;;;;;;;0.00;0.00;;;22.40;48.20;;;;;;5090217;28;20238;-49
2023/10/20 05:03:30;;;;;;;0.10;0.10;;;22.40;48.20;;;;;;5087719;28;20551;-47
2023/10/20 05:06:19;;;;;;;0.03;0.03;;;22.40;48.20;;;;;;5074057;28;20572;-49
2023/10/20 05:08:51;;;;;;;0.10;0.10;;;22.40;48.20;;;;;;5074278;28;20759;-45
2023/10/20 05:11:22;;;;;;;0.10;0.10;;;22.40;48.40;;;;;;5073043;28;20194;-46
2023/10/20 05:13:54;;;;;;;0.05;0.05;;;22.40;48.50;;;;;;5075244;28;20195;-48
2023/10/20 05:16:28;;;;;;;0.00;0.00;;;22.40;48.50;;;;;;5079859;28;20529;-48
2023/10/20 05:19:00;;;;;;;0.10;0.10;;;22.40;48.50;;;;;;5073360;28;20636;-46
2023/10/20 05:21:33;;;;;;;0.00;0.00;;;22.40;48.50;;;;;;5073840;28;20590;-46
2023/10/20 05:24:05;;;;;;;0.10;0.10;;;22.40;48.50;;;;;;5093921;28;20287;-48
2023/10/20 05:26:37;;;;;;;0.10;0.10;;;22.40;48.50;;;;;;5093953;28;20296;-47
2023/10/20 05:29:08;;;;;;;0.03;0.03;;;22.40;48.50;;;;;;5093977;28;20228;-48
2023/10/20 05:31:42;;;;;;;0.00;0.00;;;22.40;48.50;;;;;;5093188;28;20280;-47
2023/10/20 05:34:13;;;;;;;0.13;0.13;;;22.40;48.50;;;;;;5093330;28;20273;-47
2023/10/20 05:36:44;;;;;;;0.10;0.10;;;22.40;48.50;;;;;;5092866;28;20555;-49
2023/10/20 05:39:21;;;;;;;0.10;0.10;;;22.40;48.50;;;;;;5092774;28;20691;-48
2023/10/20 05:41:52;;;;;;;0.10;0.10;;;22.40;48.50;;;;;;5092923;28;20292;-45
2023/10/20 05:44:24;;;;;;;0.03;0.03;;;22.30;48.40;;;;;;5092959;28;20243;-49
2023/10/20 05:46:57;;;;;;;0.00;0.00;;;22.40;48.50;;;;;;5093672;28;20609;-46
2023/10/20 05:49:28;;;;;;;0.10;0.10;;;22.40;48.40;;;;;;5092418;28;20240;-45
2023/10/20 05:52:00;;;;;;;0.10;0.10;;;22.40;48.40;;;;;;5093278;28;20252;-46
2023/10/20 05:54:32;;;;;;;0.10;0.10;;;22.40;48.40;;;;;;5092803;28;20252;-46
2023/10/20 05:57:03;;;;;;;0.10;0.10;;;22.40;48.40;;;;;;5092465;28;20270;-45
2023/10/20 05:59:35;;;;;;;0.03;0.03;;;22.30;48.30;;;;;;5072679;28;20218;-44
2023/10/20 06:02:08;;;;;;;0.00;0.00;;;22.40;48.40;;;;;;5086021;28;20217;-47
2023/10/20 06:04:39;;;;;;;0.10;0.10;;;22.30;48.30;;;;;;5093534;28;20540;-46
2023/10/20 06:07:11;;;;;;;0.00;0.00;;;22.30;48.30;;;;;;5092162;28;20696;-46
2023/10/20 06:09:42;;;;;;;0.08;0.08;;;22.30;48.30;;;;;;5092624;28;20209;-47
2023/10/20 06:12:13;;;;;;;0.00;0.00;;;22.30;48.30;;;;;;5091698;28;20234;-47
2023/10/20 06:14:44;;;;;;;0.03;0.03;;;22.30;48.30;;;;;;5082945;28;20526;-48
2023/10/20 06:17:20;;;;;;;0.00;0.00;;;22.30;48.30;;;;;;5075866;28;20256;-46
2023/10/20 06:19:51;;;;;;;0.10;0.10;;;22.20;48.20;;;;;;5082048;28;20293;-48
2023/10/20 06:22:22;;;;;;;0.00;0.00;;;22.20;48.20;;;;;;5072961;28;20583;-48
2023/10/20 06:24:54;;;;;;;0.00;0.00;;;22.20;48.20;;;;;;5073117;28;20187;-47
2023/10/20 06:27:25;;;;;;;0.00;0.00;;;22.20;48.20;;;;;;5092153;28;20214;-47
2023/10/20 06:30:05;;;;;;;0.10;0.10;;;22.20;48.20;;;;;;5092179;28;20212;-48
2023/10/20 06:32:42;;;;;;;0.00;0.00;;;22.20;48.20;;;;;;5092367;28;20606;-47
2023/10/20 06:35:15;;;;;;;0.00;0.00;;;22.20;48.20;;;;;;5088252;28;20219;-48
2023/10/20 06:37:55;;;;;;;0.03;0.03;;;22.20;48.20;;;;;;5092586;28;20201;-46
2023/10/20 06:40:27;;;;;;;0.10;0.10;;;22.20;48.20;;;;;;5092293;28;20644;-49
2023/10/20 06:42:58;;;;;;;0.08;0.08;;;22.20;48.20;;;;;;5092127;28;20538;-46
2023/10/20 06:45:30;;;;;;;0.00;0.00;;;22.20;48.20;;;;;;5091494;28;20273;-46
2023/10/20 06:48:04;;;;;;;0.10;0.10;;;22.10;48.20;;;;;;5092682;28;20393;-47
2023/10/20 06:50:35;;;;;;;0.00;0.00;;;22.10;48.20;;;;;;5091917;28;20216;-46
2023/10/20 06:53:07;;;;;;;0.10;0.10;;;22.10;48.20;;;;;;5072411;28;20554;-45
2023/10/20 06:55:43;;;;;;;0.10;0.10;;;22.10;48.20;;;;;;5072088;28;20547;-46
2023/10/20 06:58:14;;;;;;;0.10;0.10;;;22.10;48.20;;;;;;5071756;28;20563;-46
2023/10/20 07:00:47;;;;;;;0.00;0.00;;;22.00;48.20;;;;;;5071951;28;20529;-48
2023/10/20 07:03:21;;;;;;;0.00;0.00;;;22.00;48.20;;;;;;5071686;28;20228;-45
2023/10/20 07:05:52;;;;;;;0.10;0.10;;;22.00;48.20;;;;;;5071189;28;20619;-45
2023/10/20 07:08:24;;;;;;;0.08;0.08;;;22.00;48.20;;;;;;5071474;28;20285;-48
2023/10/20 07:10:55;;;;;;;0.10;0.10;;;22.00;48.20;;;;;;5073830;28;20252;-46
2023/10/20 07:13:31;;;;;;;0.10;0.10;;;22.00;48.20;;;;;;5070925;28;20198;-48
2023/10/20 07:16:03;;;;;;;0.00;0.00;;;22.00;48.20;;;;;;5071656;28;20530;-47
2023/10/20 07:18:36;;;;;;;0.10;0.10;;;21.90;48.20;;;;;;5071788;28;20232;-48
2023/10/20 07:21:08;;;;;;;0.10;0.10;;;21.90;48.20;;;;;;5071150;28;20630;-48
2023/10/20 07:23:39;;;;;;;0.00;0.00;;;21.90;48.20;;;;;;5087504;28;20251;-46
2023/10/20 07:26:10;;;;;;;0.10;0.10;;;21.80;48.10;;;;;;5091826;28;20545;-49
2023/10/20 07:28:42;;;;;;;0.10;0.10;;;21.90;48.20;;;;;;5091507;28;20209;-46
2023/10/20 07:31:16;;;;;;;0.10;0.10;;;21.90;48.20;;;;;;5091867;28;20241;-48
2023/10/20 07:33:50;;;;;;;0.10;0.10;;;21.90;48.20;;;;;;5091779;28;20567;-46
2023/10/20 07:36:22;;;;;;;0.10;0.10;;;21.80;48.10;;;;;;5091831;28;20201;-46
2023/10/20 07:38:53;;;;;;;0.10;0.10;;;21.80;48.10;;;;;;5091398;28;20232;-46
2023/10/20 07:41:24;;;;;;;0.10;0.10;;;21.80;48.10;;;;;;5091694;28;20194;-48
2023/10/20 07:43:56;;;;;;;0.10;0.10;;;21.70;48.10;;;;;;5090923;28;20190;-45
2023/10/20 07:46:27;;;;;;;0.10;0.10;;;21.70;48.00;;;;;;5092607;28;20316;-48
2023/10/20 07:49:01;;;;;;;0.10;0.10;;;21.70;48.00;;;;;;5091901;28;20210;-45
2023/10/20 07:51:32;;;;;;;0.10;0.10;;;21.70;48.00;;;;;;5091658;28;20194;-44
2023/10/20 07:54:03;;;;;;;0.05;0.05;;;21.70;48.00;;;;;;5091781;28;20548;-46
2023/10/20 07:56:35;;;;;;;0.10;0.10;;;21.70;48.00;;;;;;5091691;28;20530;-49
2023/10/20 07:59:07;;;;;;;0.10;0.10;;;21.60;48.00;;;;;;5091149;28;20563;-48
2023/10/20 08:01:39;;;;;;;0.00;0.00;;;21.60;48.00;;;;;;5091586;28;20198;-45
2023/10/20 08:04:12;;;;;;;0.03;0.03;;;21.60;48.00;;;;;;5091117;28;20205;-49
2023/10/20 08:06:44;;;;;;;0.10;0.10;;;21.60;48.00;;;;;;5091432;28;20210;-46
2023/10/20 08:09:15;;;;;;;0.10;0.10;;;21.60;48.00;;;;;;5091335;28;20607;-45
2023/10/20 08:11:46;;;;;;;0.00;0.00;;;21.50;48.00;;;;;;5091092;28;20236;-49
2023/10/20 08:14:20;;;;;;;0.10;0.10;;;21.50;47.90;;;;;;5090318;28;20548;-49
2023/10/20 08:16:51;;;;;;;0.00;0.00;;;21.50;47.90;;;;;;5091394;28;20603;-49
2023/10/20 08:19:25;;;;;;;0.00;0.00;;;21.50;47.90;;;;;;5091034;28;20559;-45
2023/10/20 08:21:56;;;;;;;0.03;0.03;;;21.50;47.90;;;;;;5091133;28;20256;-47
2023/10/20 08:24:28;;;;;;;0.10;0.10;;;21.50;47.90;;;;;;5090620;28;20193;-45
2023/10/20 08:26:59;;;;;;;0.00;0.00;;;21.40;47.80;;;;;;5090665;28;20569;-45
2023/10/20 08:29:31;;;;;;;0.00;0.00;;;21.40;47.80;;;;;;5090265;28;20232;-46
2023/10/20 08:32:03;;;;;;;0.00;0.00;;;21.40;47.80;;;;;;5091226;28;20193;-47
2023/10/20 08:34:37;;;;;;;0.10;0.10;;;21.40;47.80;;;;;;5083309;28;20297;-48
2023/10/20 08:37:09;;;;;;;0.00;0.00;;;21.30;47.80;;;;;;5082108;28;20182;-46
2023/10/20 08:39:40;;;;;;;0.10;0.10;;;21.30;47.80;;;;;;5094052;28;20217;-48
2023/10/20 08:42:19;;;;;;;0.10;0.10;;;21.30;47.80;;;;;;5094574;28;20240;-44
2023/10/20 08:44:50;;;;;;;0.10;0.10;;;21.30;47.90;;;;;;5074648;28;20202;-48
2023/10/20 08:47:23;;;;;;;0.13;0.13;;;21.30;47.90;;;;;;5075530;28;20322;-47
2023/10/20 08:49:55;;;;;;;0.05;0.05;;;21.20;47.90;;;;;;5074235;28;20662;-46
2023/10/20 08:52:27;;;;;;;0.00;0.00;;;21.20;47.90;;;;;;5073925;28;20600;-47
2023/10/20 08:54:58;;;;;;;0.10;0.10;;;21.20;47.90;;;;;;5089461;28;20497;-48
2023/10/20 08:57:29;;;;;;;0.00;0.00;;;21.20;48.00;;;;;;5093258;28;20555;-47
2023/10/20 08:59:59;;;;;;;0.00;0.00;;;21.10;47.90;;;;;;5078817;28;20191;-48
2023/10/20 09:02:39;;;;;;;0.00;0.00;;;21.10;47.90;;;;;;5082130;28;20201;-47
2023/10/20 09:05:13;;;;;;;0.00;0.00;;;21.10;47.90;;;;;;5090641;28;20686;-45
2023/10/20 09:07:54;;;;;;;0.10;0.10;;;21.10;47.90;;;;;;5079969;28;20213;-48
2023/10/20 09:10:25;;;;;;;0.10;0.10;;;21.10;47.90;;;;;;5092973;28;20669;-48
2023/10/20 09:12:56;;;;;;;0.08;0.08;;;21.10;47.90;;;;;;5088158;28;20225;-48
2023/10/20 09:15:27;;;;;;;0.10;0.10;;;21.00;47.90;;;;;;5108800;28;20195;-46
2023/10/20 09:17:58;;;;;;;0.00;0.00;;;21.00;47.90;;;;;;5093198;28;20214;-46
2023/10/20 09:20:31;;;;;;;0.08;0.08;;;21.00;47.90;;;;;;5091374;28;20243;-48
2023/10/20 09:23:01;;;;;;;0.10;0.10;;;20.90;47.90;;;;;;5091692;28;20201;-47
2023/10/20 09:25:33;;;;;;;0.10;0.10;;;20.90;47.90;;;;;;5092256;28;20247;-46
2023/10/20 09:28:04;;;;;;;0.10;0.10;;;20.90;47.90;;;;;;5079997;28;20214;-50
2023/10/20 09:30:35;;;;;;;0.10;0.10;;;20.90;47.90;;;;;;5080731;28;20198;-48
2023/10/20 09:33:06;;;;;;;0.10;0.10;;;20.80;47.80;;;;;;5086761;28;20194;-48
2023/10/20 09:35:40;;;;;;;0.10;0.10;;;20.80;47.80;;;;;;5091986;28;20194;-48
2023/10/20 09:38:15;;;;;;;0.10;0.10;;;20.80;47.90;;;;;;5078615;28;20226;-46
2023/10/20 09:40:46;;;;;;;0.10;0.10;;;20.80;47.90;;;;;;5093392;28;20194;-48
2023/10/20 09:43:22;;;;;;;0.17;0.17;;;20.80;47.80;;;;;;5090174;28;20668;-46
2023/10/20 09:45:58;;;;;;;0.10;0.10;;;20.70;47.80;;;;;;5092503;28;20242;-48
2023/10/20 09:48:30;;;;;;;0.10;0.10;;;20.70;47.90;;;;;;5098387;28;20233;-48
2023/10/20 09:51:03;;;;;;;0.10;0.10;;;20.70;47.80;;;;;;5093687;28;20194;-48
2023/10/20 09:53:34;;;;;;;0.10;0.10;;;20.70;47.90;;;;;;5107081;28;20276;-46
2023/10/20 09:56:05;;;;;;;0.10;0.10;;;20.70;48.50;;;;;;5083439;28;20273;-51
2023/10/20 09:58:38;;;;;;;0.10;0.10;;;20.60;47.80;;;;;;5090902;28;20215;-49
2023/10/20 10:01:10;;;;;;;0.10;0.10;;;20.60;47.80;;;;;;5092541;28;20208;-47
2023/10/20 10:03:41;;;;;;;0.10;0.10;;;20.60;47.80;;;;;;5091393;28;20585;-49
2023/10/20 10:06:17;;;;;;;0.05;0.05;;;20.60;47.90;;;;;;5091722;28;20327;-51
2023/10/20 10:08:48;;;;;;;0.10;0.10;;;20.60;47.80;;;;;;5091111;28;20249;-48
2023/10/20 10:11:23;;;;;;;0.00;0.00;;;20.50;47.80;;;;;;5090884;28;20198;-49
2023/10/20 10:13:58;;;;;;;0.10;0.10;;;20.50;47.90;;;;;;5090739;28;20194;-48
2023/10/20 10:16:28;;;;;;;0.00;0.00;;;20.50;47.80;;;;;;5091983;28;20193;-49
2023/10/20 10:19:09;;;;;;;0.10;0.10;;;20.50;47.80;;;;;;5087725;28;20218;-46
2023/10/20 10:21:43;;;;;;;0.10;0.10;;;20.50;47.90;;;;;;5072008;28;20198;-48
2023/10/20 10:24:19;;;;;;;0.10;0.10;;;20.40;47.80;;;;;;5084149;28;20221;-49
2023/10/20 10:26:59;;;;;;;0.10;0.10;;;20.40;47.80;;;;;;5077970;28;20645;-49
2023/10/20 10:29:58;;;;;;;0.10;0.10;;;20.40;47.80;;;;;;5090334;28;20404;-49
2023/10/20 10:32:31;;;;;;;0.10;0.10;;;20.30;47.80;;;;;;5077883;28;20198;-46
2023/10/20 10:35:03;;;;;;;0.10;0.10;;;20.30;47.70;;;;;;5082874;28;20432;-48
2023/10/20 10:37:37;;;;;;;0.10;0.10;;;20.30;47.80;;;;;;5090722;28;20628;-50
2023/10/20 10:40:10;;;;;;;0.10;0.10;;;20.30;47.80;;;;;;5091065;28;20268;-48
2023/10/20 10:42:45;;;;;;;0.10;0.10;;;20.30;47.80;;;;;;5084926;28;20191;-48
2023/10/20 10:45:23;;;;;;;0.10;0.10;;;20.30;47.90;;;;;;5089664;28;20185;-48
2023/10/20 10:48:05;;;;;;;0.10;0.10;;;20.20;47.80;;;;;;5080513;28;20257;-46
2023/10/20 10:50:38;;;;;;;0.00;0.00;;;20.20;47.80;;;;;;5091524;28;20201;-50
2023/10/20 10:53:12;;;;;;;0.13;0.13;;;20.20;47.90;;;;;;5088677;28;20198;-45
2023/10/20 10:55:43;;;;;;;0.20;0.20;;;20.20;47.90;;;;;;5082482;28;20232;-47
2023/10/20 10:58:15;;;;;;;0.10;0.10;;;20.10;47.80;;;;;;5077567;28;20239;-47
2023/10/20 11:00:47;;;;;;;0.10;0.10;;;20.10;47.80;;;;;;5080375;28;20204;-45
2023/10/20 11:03:19;;;;;;;0.10;0.10;;;20.10;47.80;;;;;;5078760;28;20210;-45
2023/10/20 11:05:50;;;;;;;0.10;0.10;;;20.10;47.80;;;;;;5081466;28;20700;-47
2023/10/20 11:08:23;;;;;;;0.13;0.13;;;20.10;47.80;;;;;;5077740;28;20225;-46
2023/10/20 11:10:53;;;;;;;0.10;0.10;;;20.00;47.80;;;;;;5080959;28;20194;-47
2023/10/20 11:13:25;;;;;;;0.05;0.05;;;20.00;47.80;;;;;;5077893;28;20210;-47
2023/10/20 11:15:56;;;;;;;0.00;0.00;;;20.00;47.80;;;;;;5081082;28;20536;-48
2023/10/20 11:18:27;;;;;;;0.10;0.10;;;20.00;47.80;;;;;;5079404;28;20563;-47
2023/10/20 11:20:58;;;;;;;0.10;0.10;;;20.00;47.80;;;;;;5081784;28;20186;-45
2023/10/20 11:23:34;;;;;;;0.20;0.20;;;20.00;47.80;;;;;;5079379;28;20199;-47
2023/10/20 11:26:04;;;;;;;0.17;0.17;;;19.90;47.80;;;;;;5080045;28;20194;-50
2023/10/20 11:28:36;;;;;;;0.00;0.00;;;19.90;47.70;;;;;;5078899;28;20268;-48
2023/10/20 11:31:08;;;;;;;0.10;0.10;;;19.90;47.90;;;;;;5091830;28;20266;-46
2023/10/20 11:33:38;;;;;;;0.10;0.10;;;19.90;47.80;;;;;;5091901;28;20553;-47
2023/10/20 11:36:10;;;;;;;0.10;0.10;;;19.80;47.70;;;;;;5091680;28;20194;-47
2023/10/20 11:38:42;;;;;;;0.10;0.10;;;19.80;47.70;;;;;;5091573;28;20218;-47
2023/10/20 11:41:13;;;;;;;0.20;0.20;;;19.80;47.80;;;;;;5091748;28;20194;-45
2023/10/20 11:43:43;;;;;;;0.10;0.10;;;19.80;47.80;;;;;;5091950;28;20206;-47
2023/10/20 11:46:14;;;;;;;0.20;0.20;;;19.80;47.80;;;;;;5092312;28;20186;-47
2023/10/20 11:48:47;;;;;;;0.00;0.00;;;19.70;47.80;;;;;;5091957;28;20230;-46
2023/10/20 11:51:18;;;;;;;0.10;0.10;;;19.70;47.80;;;;;;5091930;28;20785;-45
2023/10/20 11:53:50;;;;;;;0.10;0.10;;;19.70;47.80;;;;;;5091367;28;20205;-45
2023/10/20 11:56:21;;;;;;;0.10;0.10;;;19.70;47.80;;;;;;5091767;28;20198;-47
2023/10/20 11:58:52;;;;;;;0.10;0.10;;;19.70;47.80;;;;;;5091730;28;20221;-48
2023/10/20 12:01:23;;;;;;;0.20;0.20;;;19.70;47.80;;;;;;5091171;28;20198;-45
2023/10/20 12:03:54;;;;;;;0.10;0.10;;;19.70;47.80;;;;;;5091085;28;20541;-48
2023/10/20 12:06:25;;;;;;;0.10;0.10;;;19.60;47.70;;;;;;5091409;28;20719;-48
2023/10/20 12:08:57;;;;;;;0.10;0.10;;;19.60;47.70;;;;;;5090935;28;20225;-48
2023/10/20 12:11:28;;;;;;;0.13;0.13;;;19.60;47.80;;;;;;5095450;28;20205;-48
2023/10/20 12:13:59;;;;;;;0.10;0.10;;;19.50;47.70;;;;;;5097899;28;20952;-50
2023/10/20 12:16:29;;;;;;;0.20;0.20;;;19.50;47.70;;;;;;5097500;28;20236;-48
2023/10/20 12:19:01;;;;;;;0.17;0.17;;;19.50;47.70;;;;;;5097351;28;20711;-45
2023/10/20 12:21:32;;;;;;;0.10;0.10;;;19.50;47.70;;;;;;5097815;28;20281;-48
2023/10/20 12:24:05;;;;;;;0.10;0.10;;;19.50;47.70;;;;;;5097749;28;20205;-47
2023/10/20 12:26:36;;;;;;;0.10;0.10;;;19.50;47.80;;;;;;5097708;28;20193;-48
2023/10/20 12:29:07;;;;;;;0.10;0.10;;;19.40;47.70;;;;;;5098075;28;20230;-46
2023/10/20 12:31:37;;;;;;;0.10;0.10;;;19.40;47.70;;;;;;5097130;28;20201;-48
2023/10/20 12:34:09;;;;;;;0.10;0.10;;;19.40;47.70;;;;;;5091648;28;20205;-47
2023/10/20 12:36:41;;;;;;;0.10;0.10;;;19.40;47.80;;;;;;5077173;28;20280;-48
2023/10/20 12:39:17;;;;;;;0.10;0.10;;;19.40;47.80;;;;;;5077071;28;20220;-46
2023/10/20 12:41:48;;;;;;;0.10;0.10;;;19.40;47.80;;;;;;5097284;28;20276;-47
2023/10/20 12:44:19;;;;;;;0.20;0.20;;;19.30;47.80;;;;;;5097439;28;20195;-48
2023/10/20 12:46:51;;;;;;;0.10;0.10;;;19.30;47.70;;;;;;5095384;28;20239;-45
2023/10/20 12:49:21;;;;;;;0.10;0.10;;;19.30;47.70;;;;;;5083673;28;20266;-46
2023/10/20 12:51:52;;;;;;;0.10;0.10;;;19.30;47.70;;;;;;5076442;28;20206;-47
2023/10/20 12:54:25;;;;;;;0.20;0.20;;;19.30;47.80;;;;;;5076560;28;20202;-47
2023/10/20 12:56:58;;;;;;;0.10;0.10;;;19.30;47.80;;;;;;5076745;28;20614;-45
2023/10/20 12:59:29;;;;;;;0.10;0.10;;;19.20;47.70;;;;;;5076488;28;20698;-46
2023/10/20 13:01:59;;;;;;;0.10;0.10;;;19.20;47.70;;;;;;5077116;28;20209;-47
2023/10/20 13:04:30;;;;;;;0.10;0.10;;;19.20;47.70;;;;;;5077716;28;20218;-47
2023/10/20 13:07:02;;;;;;;0.10;0.10;;;19.20;47.70;;;;;;5077140;28;20199;-45
2023/10/20 13:09:34;;;;;;;0.10;0.10;;;19.10;47.80;;;;;;5078989;28;20324;-47
2023/10/20 13:12:05;;;;;;;0.10;0.10;;;19.10;47.70;;;;;;5077266;28;20203;-49
2023/10/20 13:14:36;;;;;;;0.10;0.10;;;19.10;47.70;;;;;;5076771;28;20590;-50
2023/10/20 13:17:07;;;;;;;0.13;0.13;;;19.10;47.70;;;;;;5077600;28;20201;-48
2023/10/20 13:19:38;;;;;;;0.10;0.10;;;19.10;47.80;;;;;;5077286;28;20229;-46
2023/10/20 13:22:08;;;;;;;0.10;0.10;;;19.10;47.80;;;;;;5074968;28;20202;-49
2023/10/20 13:24:41;;;;;;;0.10;0.10;;;19.10;47.80;;;;;;5080617;28;20225;-46
2023/10/20 13:27:12;;;;;;;0.10;0.10;;;19.00;47.70;;;;;;5094367;28;20570;-48
2023/10/20 13:29:43;;;;;;;0.10;0.10;;;19.00;47.70;;;;;;5093783;28;20316;-48